sensor_id;sensor_type;location;lat;lon;timestamp;P1;durP1;ratioP1;P2;durP2;ratioP2
71106;SDS011;58763;47.982;11.516;2023-08-08T00:01:23;3.50;;;1.00;;
71106;SDS011;58763;47.982;11.516;2023-08-08T00:03:48;3.08;;;0.90;;
71106;SDS011;58763;47.982;11.516;2023-08-08T00:06:13;3.15;;;0.90;;
71106;SDS011;58763;47.982;11.516;2023-08-08T00:08:39;2.45;;;0.88;;
71106;SDS011;58763;47.982;11.516;2023-08-08T00:11:05;4.38;;;1.00;;
71106;SDS011;58763;47.982;11.516;2023-08-08T00:13:30;4.00;;;0.93;;
71106;SDS011;58763;47.982;11.516;2023-08-08T00:15:56;2.97;;;1.05;;
71106;SDS011;58763;47.982;11.516;2023-08-08T00:18:21;2.80;;;1.05;;
71106;SDS011;58763;47.982;11.516;2023-08-08T00:20:47;3.05;;;1.23;;
71106;SDS011;58763;47.982;11.516;2023-08-08T00:23:12;3.17;;;1.30;;
71106;SDS011;58763;47.982;11.516;2023-08-08T00:25:38;2.45;;;1.05;;
71106;SDS011;58763;47.982;11.516;2023-08-08T00:28:03;4.22;;;1.30;;
71106;SDS011;58763;47.982;11.516;2023-08-08T00:30:29;2.13;;;1.00;;
71106;SDS011;58763;47.982;11.516;2023-08-08T00:32:54;2.50;;;1.05;;
71106;SDS011;58763;47.982;11.516;2023-08-08T00:35:20;2.80;;;1.27;;
71106;SDS011;58763;47.982;11.516;2023-08-08T00:37:45;3.75;;;1.00;;
71106;SDS011;58763;47.982;11.516;2023-08-08T00:40:11;2.20;;;1.10;;
71106;SDS011;58763;47.982;11.516;2023-08-08T00:42:36;2.70;;;1.15;;
71106;SDS011;58763;47.982;11.516;2023-08-08T00:45:01;3.00;;;1.02;;
71106;SDS011;58763;47.982;11.516;2023-08-08T00:47:30;3.20;;;1.15;;
71106;SDS011;58763;47.982;11.516;2023-08-08T00:49:59;2.53;;;0.88;;
71106;SDS011;58763;47.982;11.516;2023-08-08T00:52:25;3.13;;;1.10;;
71106;SDS011;58763;47.982;11.516;2023-08-08T00:54:51;2.05;;;0.90;;
71106;SDS011;58763;47.982;11.516;2023-08-08T00:57:17;3.17;;;1.15;;
71106;SDS011;58763;47.982;11.516;2023-08-08T00:59:43;3.10;;;1.00;;
71106;SDS011;58763;47.982;11.516;2023-08-08T01:02:09;1.80;;;1.00;;
71106;SDS011;58763;47.982;11.516;2023-08-08T01:04:34;3.25;;;1.10;;
71106;SDS011;58763;47.982;11.516;2023-08-08T01:12:41;2.07;;;0.97;;
71106;SDS011;58763;47.982;11.516;2023-08-08T01:15:11;3.30;;;1.10;;
71106;SDS011;58763;47.982;11.516;2023-08-08T01:17:38;3.45;;;0.98;;
71106;SDS011;58763;47.982;11.516;2023-08-08T01:20:06;2.80;;;1.00;;
71106;SDS011;58763;47.982;11.516;2023-08-08T01:22:40;3.97;;;1.10;;
71106;SDS011;58763;47.982;11.516;2023-08-08T01:25:10;2.45;;;1.00;;
71106;SDS011;58763;47.982;11.516;2023-08-08T01:27:36;2.92;;;1.25;;
71106;SDS011;58763;47.982;11.516;2023-08-08T01:30:02;2.97;;;1.30;;
71106;SDS011;58763;47.982;11.516;2023-08-08T01:32:29;3.03;;;1.45;;
71106;SDS011;58763;47.982;11.516;2023-08-08T01:34:54;3.33;;;1.50;;
71106;SDS011;58763;47.982;11.516;2023-08-08T01:37:22;3.08;;;1.67;;
71106;SDS011;58763;47.982;11.516;2023-08-08T01:39:54;2.75;;;1.40;;
71106;SDS011;58763;47.982;11.516;2023-08-08T01:42:21;4.80;;;1.70;;
71106;SDS011;58763;47.982;11.516;2023-08-08T01:44:49;4.28;;;1.42;;
71106;SDS011;58763;47.982;11.516;2023-08-08T01:47:15;3.33;;;1.63;;
71106;SDS011;58763;47.982;11.516;2023-08-08T01:49:40;4.03;;;1.70;;
71106;SDS011;58763;47.982;11.516;2023-08-08T01:52:06;3.47;;;1.52;;
71106;SDS011;58763;47.982;11.516;2023-08-08T01:54:31;2.97;;;1.52;;
71106;SDS011;58763;47.982;11.516;2023-08-08T01:56:57;3.05;;;1.40;;
71106;SDS011;58763;47.982;11.516;2023-08-08T01:59:22;2.75;;;1.55;;
71106;SDS011;58763;47.982;11.516;2023-08-08T02:01:48;2.88;;;1.48;;
71106;SDS011;58763;47.982;11.516;2023-08-08T02:04:13;3.65;;;1.70;;
71106;SDS011;58763;47.982;11.516;2023-08-08T02:06:39;3.38;;;1.73;;
71106;SDS011;58763;47.982;11.516;2023-08-08T02:09:04;3.50;;;1.80;;
71106;SDS011;58763;47.982;11.516;2023-08-08T02:11:30;3.50;;;1.58;;
71106;SDS011;58763;47.982;11.516;2023-08-08T02:13:55;2.70;;;1.38;;
71106;SDS011;58763;47.982;11.516;2023-08-08T02:16:20;3.80;;;1.40;;
71106;SDS011;58763;47.982;11.516;2023-08-08T02:18:46;3.20;;;1.30;;
71106;SDS011;58763;47.982;11.516;2023-08-08T02:21:11;2.97;;;1.40;;
71106;SDS011;58763;47.982;11.516;2023-08-08T02:23:37;3.35;;;1.50;;
71106;SDS011;58763;47.982;11.516;2023-08-08T02:26:02;2.83;;;1.02;;
71106;SDS011;58763;47.982;11.516;2023-08-08T02:28:28;2.58;;;1.20;;
71106;SDS011;58763;47.982;11.516;2023-08-08T02:30:53;2.83;;;1.30;;
71106;SDS011;58763;47.982;11.516;2023-08-08T02:33:19;2.72;;;1.35;;
71106;SDS011;58763;47.982;11.516;2023-08-08T02:35:44;2.83;;;1.30;;
71106;SDS011;58763;47.982;11.516;2023-08-08T02:38:10;3.20;;;1.33;;
71106;SDS011;58763;47.982;11.516;2023-08-08T02:40:36;2.75;;;1.55;;
71106;SDS011;58763;47.982;11.516;2023-08-08T02:43:01;3.70;;;1.65;;
71106;SDS011;58763;47.982;11.516;2023-08-08T02:45:27;3.67;;;1.40;;
71106;SDS011;58763;47.982;11.516;2023-08-08T02:47:52;3.25;;;1.40;;
71106;SDS011;58763;47.982;11.516;2023-08-08T02:50:18;3.35;;;1.42;;
71106;SDS011;58763;47.982;11.516;2023-08-08T02:52:43;3.22;;;1.10;;
71106;SDS011;58763;47.982;11.516;2023-08-08T02:55:08;2.67;;;1.17;;
71106;SDS011;58763;47.982;11.516;2023-08-08T02:57:34;2.80;;;1.05;;
71106;SDS011;58763;47.982;11.516;2023-08-08T02:59:59;2.53;;;1.10;;
71106;SDS011;58763;47.982;11.516;2023-08-08T03:02:25;4.32;;;1.13;;
71106;SDS011;58763;47.982;11.516;2023-08-08T03:04:50;3.03;;;1.10;;
71106;SDS011;58763;47.982;11.516;2023-08-08T03:07:16;4.47;;;1.20;;
71106;SDS011;58763;47.982;11.516;2023-08-08T03:09:41;3.20;;;1.00;;
71106;SDS011;58763;47.982;11.516;2023-08-08T03:12:07;3.70;;;1.30;;
71106;SDS011;58763;47.982;11.516;2023-08-08T03:14:33;3.28;;;1.27;;
71106;SDS011;58763;47.982;11.516;2023-08-08T03:16:59;3.42;;;1.30;;
71106;SDS011;58763;47.982;11.516;2023-08-08T03:19:25;2.78;;;1.10;;
71106;SDS011;58763;47.982;11.516;2023-08-08T03:21:51;3.13;;;1.30;;
71106;SDS011;58763;47.982;11.516;2023-08-08T03:24:16;2.63;;;1.30;;
71106;SDS011;58763;47.982;11.516;2023-08-08T03:26:41;2.47;;;1.10;;
71106;SDS011;58763;47.982;11.516;2023-08-08T03:29:07;2.50;;;1.20;;
71106;SDS011;58763;47.982;11.516;2023-08-08T03:31:35;3.35;;;1.35;;
71106;SDS011;58763;47.982;11.516;2023-08-08T03:34:01;2.47;;;1.00;;
71106;SDS011;58763;47.982;11.516;2023-08-08T03:36:26;3.17;;;1.58;;
71106;SDS011;58763;47.982;11.516;2023-08-08T03:38:52;4.38;;;1.45;;
71106;SDS011;58763;47.982;11.516;2023-08-08T03:41:17;3.95;;;1.50;;
71106;SDS011;58763;47.982;11.516;2023-08-08T03:43:43;2.55;;;1.20;;
71106;SDS011;58763;47.982;11.516;2023-08-08T03:46:08;2.92;;;1.35;;
71106;SDS011;58763;47.982;11.516;2023-08-08T03:48:34;3.70;;;1.40;;
71106;SDS011;58763;47.982;11.516;2023-08-08T03:50:59;3.00;;;1.30;;
71106;SDS011;58763;47.982;11.516;2023-08-08T03:53:25;2.53;;;1.27;;
71106;SDS011;58763;47.982;11.516;2023-08-08T03:55:50;3.60;;;1.30;;
71106;SDS011;58763;47.982;11.516;2023-08-08T03:58:16;2.67;;;1.30;;
71106;SDS011;58763;47.982;11.516;2023-08-08T04:00:42;3.47;;;1.50;;
71106;SDS011;58763;47.982;11.516;2023-08-08T04:03:14;3.90;;;1.23;;
71106;SDS011;58763;47.982;11.516;2023-08-08T04:05:41;4.82;;;1.20;;
71106;SDS011;58763;47.982;11.516;2023-08-08T04:08:11;2.63;;;1.23;;
71106;SDS011;58763;47.982;11.516;2023-08-08T04:10:36;2.88;;;1.30;;
71106;SDS011;58763;47.982;11.516;2023-08-08T04:13:02;3.13;;;1.20;;
71106;SDS011;58763;47.982;11.516;2023-08-08T04:15:28;2.78;;;1.38;;
71106;SDS011;58763;47.982;11.516;2023-08-08T04:17:53;4.22;;;1.42;;
71106;SDS011;58763;47.982;11.516;2023-08-08T04:20:19;4.05;;;1.55;;
71106;SDS011;58763;47.982;11.516;2023-08-08T04:22:44;3.08;;;1.50;;
71106;SDS011;58763;47.982;11.516;2023-08-08T04:25:11;3.47;;;1.52;;
71106;SDS011;58763;47.982;11.516;2023-08-08T04:27:36;2.60;;;1.40;;
71106;SDS011;58763;47.982;11.516;2023-08-08T04:30:02;5.53;;;1.73;;
71106;SDS011;58763;47.982;11.516;2023-08-08T04:32:29;3.28;;;1.48;;
71106;SDS011;58763;47.982;11.516;2023-08-08T04:34:55;3.53;;;1.83;;
71106;SDS011;58763;47.982;11.516;2023-08-08T04:37:21;4.03;;;1.40;;
71106;SDS011;58763;47.982;11.516;2023-08-08T04:39:46;3.00;;;1.40;;
71106;SDS011;58763;47.982;11.516;2023-08-08T04:42:12;3.25;;;1.50;;
71106;SDS011;58763;47.982;11.516;2023-08-08T04:44:37;4.43;;;1.60;;
71106;SDS011;58763;47.982;11.516;2023-08-08T04:47:02;5.50;;;1.45;;
71106;SDS011;58763;47.982;11.516;2023-08-08T04:49:29;2.85;;;1.50;;
71106;SDS011;58763;47.982;11.516;2023-08-08T04:51:55;3.13;;;1.35;;
71106;SDS011;58763;47.982;11.516;2023-08-08T04:54:20;2.50;;;1.20;;
71106;SDS011;58763;47.982;11.516;2023-08-08T04:56:46;3.00;;;1.20;;
71106;SDS011;58763;47.982;11.516;2023-08-08T04:59:11;4.25;;;1.50;;
71106;SDS011;58763;47.982;11.516;2023-08-08T05:01:36;3.92;;;1.08;;
71106;SDS011;58763;47.982;11.516;2023-08-08T05:04:02;2.65;;;1.20;;
71106;SDS011;58763;47.982;11.516;2023-08-08T05:06:28;2.45;;;1.00;;
71106;SDS011;58763;47.982;11.516;2023-08-08T05:08:53;1.85;;;0.95;;
71106;SDS011;58763;47.982;11.516;2023-08-08T05:11:19;2.72;;;1.13;;
71106;SDS011;58763;47.982;11.516;2023-08-08T05:13:44;4.25;;;1.17;;
71106;SDS011;58763;47.982;11.516;2023-08-08T05:16:10;2.65;;;0.98;;
71106;SDS011;58763;47.982;11.516;2023-08-08T05:18:35;4.35;;;1.17;;
71106;SDS011;58763;47.982;11.516;2023-08-08T05:21:01;4.10;;;1.23;;
71106;SDS011;58763;47.982;11.516;2023-08-08T05:23:27;3.35;;;0.90;;
71106;SDS011;58763;47.982;11.516;2023-08-08T05:25:52;3.58;;;1.08;;
71106;SDS011;58763;47.982;11.516;2023-08-08T05:28:18;2.08;;;1.00;;
71106;SDS011;58763;47.982;11.516;2023-08-08T05:30:43;2.28;;;1.10;;
71106;SDS011;58763;47.982;11.516;2023-08-08T05:33:09;2.28;;;1.00;;
71106;SDS011;58763;47.982;11.516;2023-08-08T05:35:34;3.53;;;1.10;;
71106;SDS011;58763;47.982;11.516;2023-08-08T05:38:00;3.33;;;1.10;;
71106;SDS011;58763;47.982;11.516;2023-08-08T05:40:25;3.83;;;1.15;;
71106;SDS011;58763;47.982;11.516;2023-08-08T05:42:51;4.38;;;1.20;;
71106;SDS011;58763;47.982;11.516;2023-08-08T05:45:16;3.20;;;1.30;;
71106;SDS011;58763;47.982;11.516;2023-08-08T05:47:42;2.92;;;1.15;;
71106;SDS011;58763;47.982;11.516;2023-08-08T05:50:08;2.70;;;1.30;;
71106;SDS011;58763;47.982;11.516;2023-08-08T05:52:33;3.20;;;1.20;;
71106;SDS011;58763;47.982;11.516;2023-08-08T05:54:59;4.05;;;1.10;;
71106;SDS011;58763;47.982;11.516;2023-08-08T05:57:25;2.25;;;1.10;;
71106;SDS011;58763;47.982;11.516;2023-08-08T05:59:51;2.30;;;1.00;;
71106;SDS011;58763;47.982;11.516;2023-08-08T06:02:17;4.03;;;1.20;;
71106;SDS011;58763;47.982;11.516;2023-08-08T06:04:42;2.60;;;1.10;;
71106;SDS011;58763;47.982;11.516;2023-08-08T06:07:08;2.85;;;1.30;;
71106;SDS011;58763;47.982;11.516;2023-08-08T06:09:34;3.72;;;1.00;;
71106;SDS011;58763;47.982;11.516;2023-08-08T06:11:59;2.90;;;1.10;;
71106;SDS011;58763;47.982;11.516;2023-08-08T06:14:25;2.63;;;1.20;;
71106;SDS011;58763;47.982;11.516;2023-08-08T06:16:50;2.78;;;1.27;;
71106;SDS011;58763;47.982;11.516;2023-08-08T06:19:15;3.00;;;1.30;;
71106;SDS011;58763;47.982;11.516;2023-08-08T06:21:41;3.05;;;1.13;;
71106;SDS011;58763;47.982;11.516;2023-08-08T06:24:07;2.95;;;1.20;;
71106;SDS011;58763;47.982;11.516;2023-08-08T06:26:32;2.58;;;1.00;;
71106;SDS011;58763;47.982;11.516;2023-08-08T06:28:58;2.75;;;0.98;;
71106;SDS011;58763;47.982;11.516;2023-08-08T06:31:23;2.90;;;0.90;;
71106;SDS011;58763;47.982;11.516;2023-08-08T06:33:49;2.53;;;1.05;;
71106;SDS011;58763;47.982;11.516;2023-08-08T06:36:14;2.28;;;1.00;;
71106;SDS011;58763;47.982;11.516;2023-08-08T06:38:40;2.45;;;0.82;;
71106;SDS011;58763;47.982;11.516;2023-08-08T06:41:05;3.42;;;0.88;;
71106;SDS011;58763;47.982;11.516;2023-08-08T06:43:31;2.22;;;1.10;;
71106;SDS011;58763;47.982;11.516;2023-08-08T06:45:56;2.08;;;0.90;;
71106;SDS011;58763;47.982;11.516;2023-08-08T06:48:22;4.32;;;1.00;;
71106;SDS011;58763;47.982;11.516;2023-08-08T06:50:48;2.47;;;0.90;;
71106;SDS011;58763;47.982;11.516;2023-08-08T06:53:14;2.60;;;0.82;;
71106;SDS011;58763;47.982;11.516;2023-08-08T06:55:39;2.42;;;0.98;;
71106;SDS011;58763;47.982;11.516;2023-08-08T06:58:04;2.50;;;0.90;;
71106;SDS011;58763;47.982;11.516;2023-08-08T07:00:30;4.45;;;0.90;;
71106;SDS011;58763;47.982;11.516;2023-08-08T07:02:56;2.30;;;0.90;;
71106;SDS011;58763;47.982;11.516;2023-08-08T07:05:21;2.45;;;0.85;;
71106;SDS011;58763;47.982;11.516;2023-08-08T07:07:51;3.03;;;1.08;;
71106;SDS011;58763;47.982;11.516;2023-08-08T07:10:17;2.20;;;0.70;;
71106;SDS011;58763;47.982;11.516;2023-08-08T07:12:43;2.58;;;1.17;;
71106;SDS011;58763;47.982;11.516;2023-08-08T07:15:09;3.17;;;1.10;;
71106;SDS011;58763;47.982;11.516;2023-08-08T07:17:35;2.55;;;0.90;;
71106;SDS011;58763;47.982;11.516;2023-08-08T07:20:01;2.85;;;0.85;;
71106;SDS011;58763;47.982;11.516;2023-08-08T07:22:27;3.22;;;0.80;;
71106;SDS011;58763;47.982;11.516;2023-08-08T07:24:53;2.38;;;0.88;;
71106;SDS011;58763;47.982;11.516;2023-08-08T07:27:18;4.05;;;0.85;;
71106;SDS011;58763;47.982;11.516;2023-08-08T07:29:44;2.65;;;0.73;;
71106;SDS011;58763;47.982;11.516;2023-08-08T07:32:09;3.65;;;0.82;;
71106;SDS011;58763;47.982;11.516;2023-08-08T07:34:35;2.92;;;0.90;;
71106;SDS011;58763;47.982;11.516;2023-08-08T07:37:00;3.17;;;0.95;;
71106;SDS011;58763;47.982;11.516;2023-08-08T07:39:28;2.47;;;1.00;;
71106;SDS011;58763;47.982;11.516;2023-08-08T07:41:53;2.53;;;0.90;;
71106;SDS011;58763;47.982;11.516;2023-08-08T07:44:19;2.55;;;0.70;;
71106;SDS011;58763;47.982;11.516;2023-08-08T07:46:44;1.90;;;0.90;;
71106;SDS011;58763;47.982;11.516;2023-08-08T07:49:10;2.80;;;0.82;;
71106;SDS011;58763;47.982;11.516;2023-08-08T07:51:35;2.15;;;0.77;;
71106;SDS011;58763;47.982;11.516;2023-08-08T07:54:01;2.47;;;0.70;;
71106;SDS011;58763;47.982;11.516;2023-08-08T07:56:27;2.00;;;0.80;;
71106;SDS011;58763;47.982;11.516;2023-08-08T07:58:53;2.67;;;0.80;;
71106;SDS011;58763;47.982;11.516;2023-08-08T08:01:19;2.70;;;0.73;;
71106;SDS011;58763;47.982;11.516;2023-08-08T08:03:44;2.45;;;0.85;;
71106;SDS011;58763;47.982;11.516;2023-08-08T08:06:10;2.10;;;0.80;;
71106;SDS011;58763;47.982;11.516;2023-08-08T08:08:36;2.63;;;0.95;;
71106;SDS011;58763;47.982;11.516;2023-08-08T08:11:02;4.57;;;0.90;;
71106;SDS011;58763;47.982;11.516;2023-08-08T08:13:27;2.58;;;0.95;;
71106;SDS011;58763;47.982;11.516;2023-08-08T08:15:53;2.30;;;0.80;;
71106;SDS011;58763;47.982;11.516;2023-08-08T08:18:19;2.90;;;0.98;;
71106;SDS011;58763;47.982;11.516;2023-08-08T08:20:45;2.33;;;0.70;;
71106;SDS011;58763;47.982;11.516;2023-08-08T08:23:12;3.03;;;0.80;;
71106;SDS011;58763;47.982;11.516;2023-08-08T08:25:37;2.55;;;0.85;;
71106;SDS011;58763;47.982;11.516;2023-08-08T08:28:03;2.13;;;0.80;;
71106;SDS011;58763;47.982;11.516;2023-08-08T08:30:29;2.72;;;0.80;;
71106;SDS011;58763;47.982;11.516;2023-08-08T08:32:54;3.42;;;1.10;;
71106;SDS011;58763;47.982;11.516;2023-08-08T08:35:21;2.60;;;0.90;;
71106;SDS011;58763;47.982;11.516;2023-08-08T08:37:47;2.70;;;0.90;;
71106;SDS011;58763;47.982;11.516;2023-08-08T08:40:13;2.35;;;0.63;;
71106;SDS011;58763;47.982;11.516;2023-08-08T08:42:39;1.67;;;0.65;;
71106;SDS011;58763;47.982;11.516;2023-08-08T08:45:06;4.22;;;0.98;;
71106;SDS011;58763;47.982;11.516;2023-08-08T08:47:34;2.65;;;1.00;;
71106;SDS011;58763;47.982;11.516;2023-08-08T08:50:01;1.80;;;0.70;;
71106;SDS011;58763;47.982;11.516;2023-08-08T08:52:28;2.47;;;0.82;;
71106;SDS011;58763;47.982;11.516;2023-08-08T08:54:54;2.60;;;0.98;;
71106;SDS011;58763;47.982;11.516;2023-08-08T08:57:23;1.60;;;0.70;;
71106;SDS011;58763;47.982;11.516;2023-08-08T08:59:49;1.63;;;0.77;;
71106;SDS011;58763;47.982;11.516;2023-08-08T09:02:15;1.92;;;0.73;;
71106;SDS011;58763;47.982;11.516;2023-08-08T09:04:42;2.88;;;0.80;;
71106;SDS011;58763;47.982;11.516;2023-08-08T09:07:08;3.28;;;0.88;;
71106;SDS011;58763;47.982;11.516;2023-08-08T09:09:34;2.35;;;0.70;;
71106;SDS011;58763;47.982;11.516;2023-08-08T09:12:08;1.70;;;0.70;;
71106;SDS011;58763;47.982;11.516;2023-08-08T09:14:33;2.38;;;0.60;;
71106;SDS011;58763;47.982;11.516;2023-08-08T09:17:00;1.92;;;0.75;;
71106;SDS011;58763;47.982;11.516;2023-08-08T09:19:25;2.08;;;0.77;;
71106;SDS011;58763;47.982;11.516;2023-08-08T09:21:54;2.30;;;0.80;;
71106;SDS011;58763;47.982;11.516;2023-08-08T09:24:19;2.30;;;0.82;;
71106;SDS011;58763;47.982;11.516;2023-08-08T09:26:45;1.95;;;0.60;;
71106;SDS011;58763;47.982;11.516;2023-08-08T09:29:11;2.00;;;0.60;;
71106;SDS011;58763;47.982;11.516;2023-08-08T09:31:39;2.38;;;0.80;;
71106;SDS011;58763;47.982;11.516;2023-08-08T09:34:06;2.35;;;0.60;;
71106;SDS011;58763;47.982;11.516;2023-08-08T09:36:32;2.53;;;0.80;;
71106;SDS011;58763;47.982;11.516;2023-08-08T09:38:59;1.92;;;0.50;;
71106;SDS011;58763;47.982;11.516;2023-08-08T09:41:25;2.70;;;0.77;;
71106;SDS011;58763;47.982;11.516;2023-08-08T09:43:51;1.90;;;0.63;;
71106;SDS011;58763;47.982;11.516;2023-08-08T09:46:18;1.40;;;0.52;;
71106;SDS011;58763;47.982;11.516;2023-08-08T09:48:45;2.20;;;0.73;;
71106;SDS011;58763;47.982;11.516;2023-08-08T09:51:12;2.58;;;0.77;;
71106;SDS011;58763;47.982;11.516;2023-08-08T09:53:38;3.63;;;0.60;;
71106;SDS011;58763;47.982;11.516;2023-08-08T09:56:06;1.90;;;0.70;;
71106;SDS011;58763;47.982;11.516;2023-08-08T09:58:33;2.28;;;0.57;;
71106;SDS011;58763;47.982;11.516;2023-08-08T10:00:59;2.13;;;0.60;;
71106;SDS011;58763;47.982;11.516;2023-08-08T10:03:25;1.83;;;0.60;;
71106;SDS011;58763;47.982;11.516;2023-08-08T10:05:54;2.30;;;0.70;;
71106;SDS011;58763;47.982;11.516;2023-08-08T10:08:20;2.83;;;0.77;;
71106;SDS011;58763;47.982;11.516;2023-08-08T10:10:46;2.45;;;0.70;;
71106;SDS011;58763;47.982;11.516;2023-08-08T10:13:21;2.60;;;0.65;;
71106;SDS011;58763;47.982;11.516;2023-08-08T10:15:48;3.70;;;0.80;;
71106;SDS011;58763;47.982;11.516;2023-08-08T10:18:14;2.53;;;0.63;;
71106;SDS011;58763;47.982;11.516;2023-08-08T10:20:42;4.88;;;0.70;;
71106;SDS011;58763;47.982;11.516;2023-08-08T10:23:09;2.13;;;0.70;;
71106;SDS011;58763;47.982;11.516;2023-08-08T10:25:34;2.20;;;0.60;;
71106;SDS011;58763;47.982;11.516;2023-08-08T10:28:04;3.05;;;0.68;;
71106;SDS011;58763;47.982;11.516;2023-08-08T10:33:27;2.38;;;0.70;;
71106;SDS011;58763;47.982;11.516;2023-08-08T10:36:05;1.58;;;0.60;;
71106;SDS011;58763;47.982;11.516;2023-08-08T10:38:39;2.25;;;0.77;;
71106;SDS011;58763;47.982;11.516;2023-08-08T10:41:04;3.50;;;0.55;;
71106;SDS011;58763;47.982;11.516;2023-08-08T10:43:30;1.83;;;0.70;;
71106;SDS011;58763;47.982;11.516;2023-08-08T10:46:02;2.17;;;0.50;;
71106;SDS011;58763;47.982;11.516;2023-08-08T10:48:29;1.85;;;0.50;;
71106;SDS011;58763;47.982;11.516;2023-08-08T10:50:55;2.55;;;0.68;;
71106;SDS011;58763;47.982;11.516;2023-08-08T10:53:25;2.90;;;0.60;;
71106;SDS011;58763;47.982;11.516;2023-08-08T10:56:02;3.13;;;0.70;;
71106;SDS011;58763;47.982;11.516;2023-08-08T10:58:46;2.67;;;0.70;;
71106;SDS011;58763;47.982;11.516;2023-08-08T11:01:13;1.55;;;0.60;;
71106;SDS011;58763;47.982;11.516;2023-08-08T11:03:40;1.77;;;0.60;;
71106;SDS011;58763;47.982;11.516;2023-08-08T11:06:06;2.42;;;0.73;;
71106;SDS011;58763;47.982;11.516;2023-08-08T11:08:34;1.52;;;0.70;;
71106;SDS011;58763;47.982;11.516;2023-08-08T11:11:01;1.95;;;0.73;;
71106;SDS011;58763;47.982;11.516;2023-08-08T11:13:29;2.25;;;0.70;;
71106;SDS011;58763;47.982;11.516;2023-08-08T11:15:54;2.97;;;0.55;;
71106;SDS011;58763;47.982;11.516;2023-08-08T11:18:20;2.55;;;0.80;;
71106;SDS011;58763;47.982;11.516;2023-08-08T11:20:46;1.48;;;0.57;;
71106;SDS011;58763;47.982;11.516;2023-08-08T11:23:12;2.83;;;1.00;;
71106;SDS011;58763;47.982;11.516;2023-08-08T11:25:42;2.92;;;0.80;;
71106;SDS011;58763;47.982;11.516;2023-08-08T11:28:09;1.63;;;0.60;;
71106;SDS011;58763;47.982;11.516;2023-08-08T11:30:37;3.88;;;0.70;;
71106;SDS011;58763;47.982;11.516;2023-08-08T11:33:04;2.63;;;0.88;;
71106;SDS011;58763;47.982;11.516;2023-08-08T11:35:31;3.05;;;0.60;;
71106;SDS011;58763;47.982;11.516;2023-08-08T11:37:57;1.30;;;0.45;;
71106;SDS011;58763;47.982;11.516;2023-08-08T11:40:24;2.20;;;0.68;;
71106;SDS011;58763;47.982;11.516;2023-08-08T11:42:52;2.35;;;0.63;;
71106;SDS011;58763;47.982;11.516;2023-08-08T11:45:19;2.38;;;0.60;;
71106;SDS011;58763;47.982;11.516;2023-08-08T11:47:48;1.65;;;0.60;;
71106;SDS011;58763;47.982;11.516;2023-08-08T11:50:15;2.78;;;0.70;;
71106;SDS011;58763;47.982;11.516;2023-08-08T11:52:42;3.47;;;0.70;;
71106;SDS011;58763;47.982;11.516;2023-08-08T11:55:10;1.95;;;0.60;;
71106;SDS011;58763;47.982;11.516;2023-08-08T11:57:37;1.67;;;0.50;;
71106;SDS011;58763;47.982;11.516;2023-08-08T12:00:10;1.27;;;0.50;;
71106;SDS011;58763;47.982;11.516;2023-08-08T12:02:39;2.13;;;0.60;;
71106;SDS011;58763;47.982;11.516;2023-08-08T12:05:11;1.38;;;0.52;;
71106;SDS011;58763;47.982;11.516;2023-08-08T12:07:37;2.20;;;0.50;;
71106;SDS011;58763;47.982;11.516;2023-08-08T12:10:17;2.95;;;0.60;;
71106;SDS011;58763;47.982;11.516;2023-08-08T12:12:44;2.38;;;0.70;;
71106;SDS011;58763;47.982;11.516;2023-08-08T12:15:10;1.83;;;0.70;;
71106;SDS011;58763;47.982;11.516;2023-08-08T12:17:37;1.77;;;0.50;;
71106;SDS011;58763;47.982;11.516;2023-08-08T12:20:04;1.55;;;0.60;;
71106;SDS011;58763;47.982;11.516;2023-08-08T12:22:31;3.15;;;0.70;;
71106;SDS011;58763;47.982;11.516;2023-08-08T12:24:57;2.45;;;0.75;;
71106;SDS011;58763;47.982;11.516;2023-08-08T12:27:22;2.25;;;0.63;;
71106;SDS011;58763;47.982;11.516;2023-08-08T12:29:48;1.70;;;0.50;;
71106;SDS011;58763;47.982;11.516;2023-08-08T12:32:13;2.53;;;0.77;;
71106;SDS011;58763;47.982;11.516;2023-08-08T12:34:38;1.50;;;0.52;;
71106;SDS011;58763;47.982;11.516;2023-08-08T12:37:04;1.75;;;0.50;;
71106;SDS011;58763;47.982;11.516;2023-08-08T12:39:30;2.83;;;0.52;;
71106;SDS011;58763;47.982;11.516;2023-08-08T12:41:55;2.88;;;0.70;;
71106;SDS011;58763;47.982;11.516;2023-08-08T12:44:21;1.85;;;0.60;;
71106;SDS011;58763;47.982;11.516;2023-08-08T12:46:47;2.92;;;0.70;;
71106;SDS011;58763;47.982;11.516;2023-08-08T12:49:12;1.83;;;0.52;;
71106;SDS011;58763;47.982;11.516;2023-08-08T12:51:38;2.05;;;0.63;;
71106;SDS011;58763;47.982;11.516;2023-08-08T12:54:03;1.98;;;0.60;;
71106;SDS011;58763;47.982;11.516;2023-08-08T12:56:29;1.27;;;0.43;;
71106;SDS011;58763;47.982;11.516;2023-08-08T12:58:54;1.40;;;0.50;;
71106;SDS011;58763;47.982;11.516;2023-08-08T13:01:19;2.22;;;0.70;;
71106;SDS011;58763;47.982;11.516;2023-08-08T13:03:45;1.48;;;0.52;;
71106;SDS011;58763;47.982;11.516;2023-08-08T13:06:10;2.05;;;0.65;;
71106;SDS011;58763;47.982;11.516;2023-08-08T13:08:37;2.15;;;0.70;;
71106;SDS011;58763;47.982;11.516;2023-08-08T13:11:03;2.17;;;0.70;;
71106;SDS011;58763;47.982;11.516;2023-08-08T13:13:28;3.25;;;0.63;;
71106;SDS011;58763;47.982;11.516;2023-08-08T13:15:54;1.98;;;0.73;;
71106;SDS011;58763;47.982;11.516;2023-08-08T13:18:19;1.17;;;0.47;;
71106;SDS011;58763;47.982;11.516;2023-08-08T13:20:45;2.92;;;0.55;;
71106;SDS011;58763;47.982;11.516;2023-08-08T13:23:10;1.90;;;0.65;;
71106;SDS011;58763;47.982;11.516;2023-08-08T13:25:36;2.05;;;0.60;;
71106;SDS011;58763;47.982;11.516;2023-08-08T13:28:02;2.35;;;0.60;;
71106;SDS011;58763;47.982;11.516;2023-08-08T13:30:29;2.90;;;0.60;;
71106;SDS011;58763;47.982;11.516;2023-08-08T13:32:55;1.35;;;0.40;;
71106;SDS011;58763;47.982;11.516;2023-08-08T13:35:20;1.50;;;0.60;;
71106;SDS011;58763;47.982;11.516;2023-08-08T13:37:46;1.77;;;0.55;;
71106;SDS011;58763;47.982;11.516;2023-08-08T13:40:16;1.50;;;0.50;;
71106;SDS011;58763;47.982;11.516;2023-08-08T13:42:41;2.22;;;0.60;;
71106;SDS011;58763;47.982;11.516;2023-08-08T13:45:07;1.35;;;0.45;;
71106;SDS011;58763;47.982;11.516;2023-08-08T13:47:34;2.72;;;0.68;;
71106;SDS011;58763;47.982;11.516;2023-08-08T13:50:00;1.33;;;0.40;;
71106;SDS011;58763;47.982;11.516;2023-08-08T13:52:25;2.28;;;0.50;;
71106;SDS011;58763;47.982;11.516;2023-08-08T13:54:50;1.55;;;0.60;;
71106;SDS011;58763;47.982;11.516;2023-08-08T13:57:16;2.22;;;0.60;;
71106;SDS011;58763;47.982;11.516;2023-08-08T13:59:42;2.10;;;0.68;;
71106;SDS011;58763;47.982;11.516;2023-08-08T14:02:08;2.60;;;0.68;;
71106;SDS011;58763;47.982;11.516;2023-08-08T14:04:34;2.45;;;0.80;;
71106;SDS011;58763;47.982;11.516;2023-08-08T14:06:59;2.10;;;0.57;;
71106;SDS011;58763;47.982;11.516;2023-08-08T14:09:25;1.77;;;0.60;;
71106;SDS011;58763;47.982;11.516;2023-08-08T14:11:50;2.33;;;0.55;;
71106;SDS011;58763;47.982;11.516;2023-08-08T14:14:16;2.35;;;0.70;;
71106;SDS011;58763;47.982;11.516;2023-08-08T14:16:41;2.33;;;0.70;;
71106;SDS011;58763;47.982;11.516;2023-08-08T14:19:06;2.63;;;0.70;;
71106;SDS011;58763;47.982;11.516;2023-08-08T14:21:33;1.35;;;0.50;;
71106;SDS011;58763;47.982;11.516;2023-08-08T14:23:58;3.70;;;0.80;;
71106;SDS011;58763;47.982;11.516;2023-08-08T14:26:24;2.38;;;0.75;;
71106;SDS011;58763;47.982;11.516;2023-08-08T14:28:49;3.58;;;0.60;;
71106;SDS011;58763;47.982;11.516;2023-08-08T14:31:15;2.05;;;0.70;;
71106;SDS011;58763;47.982;11.516;2023-08-08T14:33:40;2.33;;;0.77;;
71106;SDS011;58763;47.982;11.516;2023-08-08T14:36:05;2.05;;;0.70;;